CheckWX is a tool to help pilots better visualize weather data.  It is not intended as a substitute for an official pre-flight weather briefing.

04:59:20 UTC

KTVL TAF
Lake Tahoe Airport
South Lake Tahoe, California, USA
KTVL 272322Z 2800/2824 03007KT P6SM FEW180 FM280200 VRB03KT P6SM FEW180 FM281800 18009KT P6SM SCT140 BKN180

Feb-28@
00:00 UTC

Feb-28 @ 00:00 UTC

Feb-28@
02:00 UTC

Feb-28 @ 02:00 UTC

KTVL 272322Z 2800/2824 03007KT P6SM FEW180

Expired

Wind
  • 030° at 7 KTS
Cloud Levels
  • Few at 18,000' AGL

Feb-28@
02:00 UTC

Feb-28 @ 02:00 UTC

Feb-28@
18:00 UTC

Feb-28 @ 18:00 UTC

FM280200 VRB03KT P6SM FEW180

From

From Standard forecast or significant change

Wind
  • Variable at 3 KTS
Cloud Levels
  • Few at 18,000' AGL

Feb-28@
18:00 UTC

Feb-28 @ 18:00 UTC

Feb-29@
00:00 UTC

Feb-29 @ 00:00 UTC

FM281800 18009KT P6SM SCT140 BKN180

From

From Standard forecast or significant change

Wind
  • 180° at 9 KTS
Cloud Levels
  • Scattered at 14,000' AGL
  • Broken at 18,000' AGL